Time;durP1;ratioP1;P1;durP2;ratioP2;P2;SDS_P1;SDS_P2;PMS_P1;PMS_P2;Temp;Humidity;BMP_temperature;BMP_pressure;BME280_temperature;BME280_humidity;BME280_pressure;Samples;Min_cycle;Max_cycle;Signal;HPM_P1;HPM_P2
2021/03/18 00:00:47;;;;;;;15.60;7.75;;;;;;;3.75;81.37;96122.47;5061393;28;20074;-65
2021/03/18 00:03:33;;;;;;;10.95;4.78;;;;;;;3.28;81.57;96050.34;5044112;28;20431;-66
2021/03/18 00:06:18;;;;;;;9.18;4.60;;;;;;;3.87;80.66;96132.56;5042263;28;20119;-66
2021/03/18 00:09:06;;;;;;;15.48;6.95;;;;;;;3.82;81.00;96136.38;5044068;28;20048;-65
2021/03/18 00:11:52;;;;;;;8.05;4.40;;;;;;;3.95;80.00;96135.13;5043713;28;20071;-66
2021/03/18 00:14:36;;;;;;;8.25;4.88;;;;;;;3.98;79.51;96139.13;5042749;28;20059;-66
2021/03/18 00:17:20;;;;;;;7.20;4.60;;;;;;;3.84;81.22;96139.53;5041782;28;20091;-66
2021/03/18 00:20:08;;;;;;;9.57;4.65;;;;;;;3.77;81.46;96144.81;5043159;28;20047;-65
2021/03/18 00:22:52;;;;;;;9.73;4.93;;;;;;;3.84;81.09;96183.34;5043400;28;20106;-66
2021/03/18 00:25:37;;;;;;;6.30;3.97;;;;;;;3.69;81.78;96137.56;5042956;28;20060;-66
2021/03/18 00:28:22;;;;;;;8.93;5.50;;;;;;;3.81;82.23;96139.44;5043685;28;20517;-66
2021/03/18 00:31:07;;;;;;;7.22;4.30;;;;;;;4.00;80.44;96131.38;5042329;28;20228;-67
2021/03/18 00:33:51;;;;;;;6.72;3.78;;;;;;;3.87;80.90;96116.91;5043688;28;20123;-65
2021/03/18 00:36:35;;;;;;;8.43;5.32;;;;;;;3.96;80.74;96139.50;5041830;28;20423;-66
2021/03/18 00:39:19;;;;;;;12.20;5.70;;;;;;;3.32;80.34;96045.75;5043762;28;20055;-66
2021/03/18 00:42:03;;;;;;;11.25;5.47;;;;;;;4.07;79.83;96137.03;5042942;28;20195;-65
2021/03/18 00:44:48;;;;;;;8.18;4.90;;;;;;;4.07;80.67;96143.31;5041690;28;20083;-66
2021/03/18 00:47:32;;;;;;;9.63;5.35;;;;;;;4.14;80.99;96142.72;5043049;28;20036;-66
2021/03/18 00:50:20;;;;;;;10.38;5.40;;;;;;;3.86;81.52;96120.81;5041836;28;20106;-65
2021/03/18 00:53:05;;;;;;;9.18;4.82;;;;;;;3.98;82.27;96150.09;5044001;28;20495;-67
2021/03/18 00:55:51;;;;;;;8.68;4.55;;;;;;;3.79;83.16;96144.47;5042973;28;20044;-66
2021/03/18 00:58:36;;;;;;;8.18;4.78;;;;;;;3.88;82.60;96140.44;5044038;28;20048;-67
2021/03/18 01:01:24;;;;;;;10.73;5.45;;;;;;;0.86;82.60;95743.31;5051775;28;20093;-67
2021/03/18 01:04:08;;;;;;;9.20;4.95;;;;;;;3.91;82.18;96137.00;5066982;28;20046;-67
2021/03/18 01:06:52;;;;;;;12.25;5.53;;;;;;;3.27;82.41;96046.03;5066949;28;20067;-68
2021/03/18 01:09:36;;;;;;;8.98;5.25;;;;;;;3.44;82.03;96075.81;5067578;28;20047;-66
2021/03/18 01:12:20;;;;;;;9.13;4.22;;;;;;;4.00;82.22;96126.66;5066703;28;20097;-67
2021/03/18 01:15:05;;;;;;;7.38;4.20;;;;;;;3.96;82.17;96108.53;5066893;28;20085;-69
2021/03/18 01:17:50;;;;;;;5.65;3.35;;;;;;;3.75;80.96;96086.84;5065514;28;20129;-65
2021/03/18 01:20:34;;;;;;;14.18;6.20;;;;;;;3.47;83.56;96146.28;5066875;28;20157;-66
2021/03/18 01:23:18;;;;;;;13.27;6.25;;;;;;;3.42;86.70;96138.31;5066767;28;20478;-66
2021/03/18 01:26:05;;;;;;;9.75;4.55;;;;;;;3.56;86.21;96198.97;5066044;28;20131;-66
2021/03/18 01:28:49;;;;;;;17.77;8.68;;;;;;;2.36;85.76;95912.09;5067009;28;20132;-68
2021/03/18 01:31:33;;;;;;;27.27;11.38;;;;;;;3.88;86.00;96129.47;5066315;28;20082;-67
2021/03/18 01:34:17;;;;;;;17.58;8.32;;;;;;;3.87;83.84;96105.19;5066210;28;20128;-67
2021/03/18 01:37:01;;;;;;;14.60;7.70;;;;;;;3.49;83.61;96045.47;5066136;28;20415;-66
2021/03/18 01:39:45;;;;;;;16.55;8.73;;;;;;;3.05;83.39;95980.91;5066358;28;20106;-68
2021/03/18 01:42:29;;;;;;;16.42;8.32;;;;;;;4.23;81.97;96152.38;5065922;28;20040;-67
2021/03/18 01:45:14;;;;;;;11.95;6.63;;;;;;;4.29;82.03;96161.91;5065966;28;20090;-67
2021/03/18 01:47:58;;;;;;;16.00;7.93;;;;;;;3.73;82.30;96078.19;5065095;28;20082;-67
2021/03/18 01:50:43;;;;;;;18.92;8.70;;;;;;;4.25;82.99;96152.78;5065936;28;20538;-64
2021/03/18 01:53:27;;;;;;;25.85;12.82;;;;;;;4.24;83.13;96153.13;5066321;28;20422;-65
2021/03/18 01:56:12;;;;;;;28.33;13.55;;;;;;;3.60;82.88;96057.50;5064452;28;20045;-65
2021/03/18 01:58:57;;;;;;;42.80;19.00;;;;;;;3.90;81.51;96116.25;5066369;28;20640;-68
2021/03/18 02:01:41;;;;;;;22.80;11.02;;;;;;;4.16;82.51;96163.13;5056611;28;20048;-65
2021/03/18 02:04:25;;;;;;;32.47;16.40;;;;;;;3.51;81.94;96067.81;5045932;28;20051;-66
2021/03/18 02:07:09;;;;;;;12.77;7.30;;;;;;;4.34;81.20;96172.63;5045483;28;20040;-66
2021/03/18 02:09:54;;;;;;;17.75;9.82;;;;;;;4.37;81.31;96179.34;5045889;28;20047;-66
2021/03/18 02:12:38;;;;;;;22.58;11.55;;;;;;;4.31;82.11;96170.59;5045936;28;20040;-65
2021/03/18 02:15:25;;;;;;;37.72;16.35;;;;;;;4.32;81.17;96180.41;5045730;28;20068;-65
2021/03/18 02:18:43;;;;;;;28.52;12.50;;;;;;;3.46;81.10;96061.78;5044317;28;20188;-66
2021/03/18 02:21:58;;;;;;;46.40;19.40;;;;;;;1.64;81.53;95773.03;5043625;28;20039;-66
2021/03/18 02:24:59;;;;;;;14.27;7.40;;;;;;;4.26;82.60;96190.03;5045744;28;20077;-65
2021/03/18 02:28:19;;;;;;;20.30;10.38;;;;;;;4.45;81.07;96187.41;5044364;28;20051;-66
2021/03/18 02:31:12;;;;;;;15.82;8.98;;;;;;;4.55;79.38;96181.38;5023620;28;20534;-66
2021/03/18 02:34:03;;;;;;;94.07;41.45;;;;;;;4.55;79.44;96188.84;5044939;28;20102;-66
2021/03/18 02:36:57;;;;;;;47.28;22.80;;;;;;;3.87;79.54;96100.47;5044915;28;20057;-66
2021/03/18 02:39:49;;;;;;;39.53;19.10;;;;;;;3.96;79.87;96112.09;5045121;28;20052;-67
2021/03/18 02:42:36;;;;;;;59.55;31.67;;;;;;;4.52;80.75;96187.56;5045443;28;20384;-65
2021/03/18 02:45:24;;;;;;;74.60;39.90;;;;;;;4.61;80.49;96184.69;5044892;28;20563;-66
2021/03/18 02:48:13;;;;;;;57.67;31.90;;;;;;;4.62;81.09;96192.56;5043901;28;20416;-66
2021/03/18 02:50:57;;;;;;;88.40;38.85;;;;;;;4.58;80.20;96174.41;5043684;28;20682;-67
2021/03/18 02:53:44;;;;;;;44.17;20.70;;;;;;;4.10;80.22;96126.16;5045753;28;20048;-67
2021/03/18 02:56:28;;;;;;;30.77;14.60;;;;;;;4.72;81.00;96204.13;5044977;28;20075;-66
2021/03/18 02:59:20;;;;;;;29.52;14.00;;;;;;;3.56;80.94;96034.72;5045449;28;20043;-65
2021/03/18 03:02:09;;;;;;;16.90;7.63;;;;;;;4.51;80.53;96180.50;5056189;28;20047;-67
2021/03/18 03:04:56;;;;;;;14.65;6.43;;;;;;;4.39;81.64;96194.28;5064727;28;20836;-66
2021/03/18 03:07:43;;;;;;;33.33;15.68;;;;;;;4.26;81.76;96183.75;5063324;28;20549;-66
2021/03/18 03:10:29;;;;;;;20.48;10.00;;;;;;;4.22;82.28;96202.81;5063009;28;20035;-66
2021/03/18 03:13:15;;;;;;;25.10;12.93;;;;;;;4.32;82.12;96215.22;5064413;28;20295;-66
2021/03/18 03:16:03;;;;;;;35.47;18.83;;;;;;;4.27;82.14;96185.31;5064370;28;20517;-67
2021/03/18 03:18:48;;;;;;;16.17;9.50;;;;;;;4.36;82.06;96211.44;5065235;28;20123;-67
2021/03/18 03:21:33;;;;;;;26.85;15.50;;;;;;;4.24;82.67;96274.53;5062453;28;20128;-67
2021/03/18 03:24:18;;;;;;;22.33;13.45;;;;;;;3.37;82.73;96064.66;5063158;28;20059;-66
2021/03/18 03:27:03;;;;;;;19.10;9.23;;;;;;;4.47;82.52;96207.03;5062833;28;20050;-67
2021/03/18 03:29:48;;;;;;;20.17;8.75;;;;;;;3.83;82.54;96120.69;5063300;28;20055;-66
2021/03/18 03:32:32;;;;;;;16.65;9.07;;;;;;;4.49;82.33;96199.25;5063876;28;20093;-67
2021/03/18 03:35:17;;;;;;;22.75;13.45;;;;;;;4.55;82.51;96203.31;5063953;28;20099;-67
2021/03/18 03:38:02;;;;;;;20.67;10.30;;;;;;;4.59;82.83;96198.75;5064378;28;20407;-67
2021/03/18 03:40:47;;;;;;;23.55;14.05;;;;;;;4.11;82.23;96122.28;5063597;28;20136;-66
2021/03/18 03:43:32;;;;;;;15.20;8.38;;;;;;;4.41;82.94;96172.78;5062868;28;20129;-66
2021/03/18 03:46:17;;;;;;;30.90;15.10;;;;;;;4.72;82.91;96209.63;5062502;28;20542;-66
2021/03/18 03:49:03;;;;;;;31.42;16.80;;;;;;;4.23;83.09;96146.88;5063002;28;20055;-67
2021/03/18 03:52:10;;;;;;;100.03;37.08;;;;;;;4.48;83.66;96186.69;5063770;28;20555;-68
2021/03/18 03:55:21;;;;;;;24.10;14.25;;;;;;;4.06;82.74;96125.25;5063434;28;20050;-68
2021/03/18 03:58:32;;;;;;;104.25;41.83;;;;;;;4.53;82.69;96216.59;5064851;28;20097;-68
2021/03/18 04:01:35;;;;;;;34.20;16.17;;;;;;;4.50;83.34;96228.25;5058962;28;20067;-68
2021/03/18 04:04:28;;;;;;;23.98;11.50;;;;;;;4.38;83.38;96233.81;5043959;28;20191;-68
2021/03/18 04:07:23;;;;;;;27.73;11.90;;;;;;;4.25;84.09;96228.75;5043292;28;20048;-68
2021/03/18 04:10:10;;;;;;;37.35;17.00;;;;;;;4.30;84.89;96239.47;5042256;28;20051;-68
2021/03/18 04:12:57;;;;;;;25.38;13.45;;;;;;;4.07;85.70;96224.69;5043580;28;20454;-68
2021/03/18 04:15:43;;;;;;;31.05;13.68;;;;;;;4.18;85.18;96226.59;5043013;28;20086;-67
2021/03/18 04:18:32;;;;;;;33.00;14.70;;;;;;;3.97;85.35;96187.63;5043069;28;20139;-68
2021/03/18 04:21:19;;;;;;;56.83;23.38;;;;;;;4.29;84.33;96227.69;5043254;28;20044;-68
2021/03/18 04:24:04;;;;;;;67.63;26.23;;;;;;;3.70;84.90;96133.66;5043511;28;20557;-69
2021/03/18 04:26:50;;;;;;;42.78;19.05;;;;;;;4.01;85.82;96215.94;5041993;28;20440;-67
2021/03/18 04:29:37;;;;;;;44.15;19.52;;;;;;;4.19;86.15;96225.44;5043814;28;20515;-67
2021/03/18 04:32:23;;;;;;;37.80;16.45;;;;;;;4.31;85.47;96230.91;5041721;28;20163;-68
2021/03/18 04:35:09;;;;;;;28.27;14.27;;;;;;;4.26;85.32;96228.41;5045076;28;20063;-66
2021/03/18 04:37:57;;;;;;;27.83;14.75;;;;;;;4.43;84.96;96238.25;5047720;28;20132;-65
2021/03/18 04:40:41;;;;;;;32.80;16.08;;;;;;;4.51;84.88;96240.84;5047347;28;20127;-66
2021/03/18 04:43:26;;;;;;;47.17;23.60;;;;;;;4.50;85.02;96246.66;5047789;28;20055;-67
2021/03/18 04:46:10;;;;;;;40.28;20.48;;;;;;;4.29;84.65;96238.66;5046953;28;20141;-66
2021/03/18 04:49:00;;;;;;;49.08;23.40;;;;;;;3.93;85.78;96194.97;5047854;28;20086;-67
2021/03/18 04:51:45;;;;;;;29.02;14.18;;;;;;;4.36;85.34;96271.72;5047313;28;20048;-66
2021/03/18 04:54:30;;;;;;;19.23;10.13;;;;;;;4.48;84.21;96258.00;5048215;28;20465;-68
2021/03/18 04:57:21;;;;;;;13.20;6.90;;;;;;;4.42;83.69;96259.41;5046013;28;20090;-70
2021/03/18 05:00:06;;;;;;;10.95;6.25;;;;;;;0.49;83.76;95694.59;5045764;28;20060;-70
2021/03/18 05:02:50;;;;;;;12.98;7.75;;;;;;;3.79;84.65;96207.47;5063167;28;20040;-69
2021/03/18 05:05:35;;;;;;;19.83;10.63;;;;;;;3.43;84.07;96104.31;5066539;28;20098;-69
2021/03/18 05:08:20;;;;;;;26.83;13.20;;;;;;;3.85;83.53;96156.75;5067005;28;20109;-66
2021/03/18 05:11:05;;;;;;;35.05;18.25;;;;;;;4.55;83.40;96280.09;5066782;28;20046;-67
2021/03/18 05:13:49;;;;;;;32.30;17.90;;;;;;;3.93;82.42;96155.81;5067233;28;20115;-69
2021/03/18 05:16:34;;;;;;;32.00;17.55;;;;;;;4.89;81.18;96273.19;5067029;28;20604;-69
2021/03/18 05:19:19;;;;;;;25.40;13.40;;;;;;;4.41;79.84;96175.53;5065580;28;20053;-69
2021/03/18 05:22:03;;;;;;;18.85;11.57;;;;;;;5.13;78.64;96266.72;5065063;28;20031;-69
2021/03/18 05:24:48;;;;;;;19.05;10.90;;;;;;;5.26;77.17;96277.28;5066569;28;20052;-68
2021/03/18 05:27:32;;;;;;;18.27;9.82;;;;;;;5.07;77.10;96246.19;5066241;28;20083;-66
2021/03/18 05:30:16;;;;;;;19.50;10.85;;;;;;;4.25;80.07;96169.22;5079321;28;20055;-68
2021/03/18 05:33:02;;;;;;;14.60;6.85;;;;;;;4.23;85.39;96283.09;5065669;28;20051;-67
2021/03/18 05:35:46;;;;;;;8.30;4.90;;;;;;;3.59;90.20;96225.63;5065892;28;20141;-69
2021/03/18 05:38:31;;;;;;;13.95;6.15;;;;;;;4.27;87.57;96290.28;5066240;28;20043;-68
2021/03/18 05:41:15;;;;;;;9.98;5.35;;;;;;;4.32;87.95;96297.47;5064355;28;20098;-67
2021/03/18 05:44:00;;;;;;;9.75;4.47;;;;;;;3.72;88.34;96243.66;5066108;28;20051;-67
2021/03/18 05:46:46;;;;;;;7.70;4.75;;;;;;;3.80;89.90;96297.50;5064391;28;20050;-66
2021/03/18 05:49:32;;;;;;;11.77;6.60;;;;;;;4.28;89.13;96319.28;5066497;28;20051;-67
2021/03/18 05:52:17;;;;;;;7.85;4.22;;;;;;;4.16;85.32;96245.34;5066070;28;20089;-67
2021/03/18 05:55:03;;;;;;;13.48;5.03;;;;;;;4.57;84.37;96310.72;5066461;28;20527;-66
2021/03/18 05:57:51;;;;;;;10.65;5.88;;;;;;;4.95;84.22;96325.88;5066089;28;20075;-66
2021/03/18 06:00:36;;;;;;;5.18;4.07;;;;;;;5.17;81.86;96319.78;5065410;28;20097;-66
2021/03/18 06:03:20;;;;;;;10.25;4.43;;;;;;;4.79;80.31;96245.47;5045646;28;20093;-66
2021/03/18 06:06:08;;;;;;;18.08;11.07;;;;;;;3.37;79.67;95941.53;5045519;28;20043;-69
2021/03/18 06:08:51;;;;;;;11.60;7.75;;;;;;;5.98;78.69;96314.31;5046610;28;20083;-66
2021/03/18 06:11:35;;;;;;;15.63;8.88;;;;;;;5.37;76.83;96189.66;5044315;28;20051;-66
2021/03/18 06:14:19;;;;;;;26.65;13.02;;;;;;;6.37;75.75;96324.22;5044904;28;20102;-67
2021/03/18 06:17:04;;;;;;;16.15;9.85;;;;;;;6.34;75.38;96302.94;5045671;28;20111;-67
2021/03/18 06:19:51;;;;;;;14.68;7.43;;;;;;;6.56;75.13;96307.72;5045644;28;20063;-66
2021/03/18 06:22:41;;;;;;;10.98;6.70;;;;;;;6.88;73.44;96333.91;5044575;28;20090;-67
2021/03/18 06:25:30;;;;;;;21.55;11.57;;;;;;;6.85;72.96;96298.88;5045782;28;20047;-67
2021/03/18 06:28:28;;;;;;;19.48;12.63;;;;;;;7.34;71.75;96332.03;5045504;28;20102;-66
2021/03/18 06:31:15;;;;;;;24.20;14.43;;;;;;;7.48;69.73;96343.28;5045101;28;20039;-67
2021/03/18 06:34:00;;;;;;;13.80;7.40;;;;;;;7.56;70.24;96326.50;5045867;28;20071;-67
2021/03/18 06:36:44;;;;;;;15.70;9.63;;;;;;;7.97;70.26;96343.31;5045267;28;20403;-67
2021/03/18 06:39:31;;;;;;;16.30;11.18;;;;;;;7.34;69.22;96225.41;5045646;28;20072;-67
2021/03/18 06:42:15;;;;;;;10.60;6.45;;;;;;;7.98;68.03;96295.28;5044922;28;20039;-68
2021/03/18 06:45:14;;;;;;;3.25;2.60;;;;;;;7.47;64.67;96350.78;5044858;28;20111;-69
2021/03/18 06:48:08;;;;;;;2.80;2.08;;;;;;;6.78;64.49;96353.75;5054874;28;20051;-66
2021/03/18 06:50:52;;;;;;;4.65;2.25;;;;;;;5.72;66.07;96176.72;5047453;28;20633;-67
2021/03/18 06:53:37;;;;;;;2.28;1.60;;;;;;;5.44;65.60;96156.84;5059228;28;20101;-64
2021/03/18 06:56:32;;;;;;;3.10;1.92;;;;;;;6.09;63.81;96243.88;5043877;28;20039;-63
2021/03/18 06:59:25;;;;;;;2.95;1.73;;;;;;;6.32;66.12;96261.28;5060006;28;20051;-62
2021/03/18 07:02:12;;;;;;;2.15;1.60;;;;;;;7.33;62.91;96369.78;5063181;28;20124;-63
2021/03/18 07:04:56;;;;;;;4.95;3.30;;;;;;;6.90;63.47;96375.66;5063457;28;20051;-67
2021/03/18 07:07:40;;;;;;;3.97;2.72;;;;;;;6.65;63.74;96300.06;5055520;28;20129;-62
2021/03/18 07:10:35;;;;;;;4.72;2.72;;;;;;;6.72;64.17;96294.69;5045022;28;20083;-64
2021/03/18 07:13:29;;;;;;;3.92;2.65;;;;;;;7.04;65.97;96372.38;5043807;28;20047;-63
2021/03/18 07:16:14;;;;;;;3.45;2.30;;;;;;;7.30;65.27;96315.44;5048113;28;20116;-66
2021/03/18 07:18:59;;;;;;;3.58;1.75;;;;;;;7.32;63.80;96373.72;5046179;28;20059;-63
2021/03/18 07:21:43;;;;;;;3.00;2.40;;;;;;;6.57;66.19;96303.00;5043973;28;20569;-62
2021/03/18 07:24:29;;;;;;;2.25;1.88;;;;;;;7.19;62.52;96380.53;5043473;28;20055;-64
2021/03/18 07:27:15;;;;;;;3.05;2.22;;;;;;;6.93;61.46;96311.59;5046879;28;20451;-68
2021/03/18 07:30:00;;;;;;;3.05;2.17;;;;;;;7.78;60.29;96362.72;5051567;28;20091;-64
2021/03/18 07:32:47;;;;;;;3.55;2.58;;;;;;;8.48;60.02;96380.38;5046579;28;20118;-65
2021/03/18 07:35:32;;;;;;;3.20;2.08;;;;;;;8.38;57.02;96386.50;5042312;28;20048;-61
2021/03/18 07:38:16;;;;;;;2.42;2.05;;;;;;;8.17;57.06;96391.69;5042760;28;20191;-62
2021/03/18 07:41:00;;;;;;;2.67;2.13;;;;;;;8.50;57.29;96389.06;5043634;28;20059;-63
2021/03/18 07:43:46;;;;;;;2.22;2.00;;;;;;;8.69;54.31;96378.69;5056357;28;20191;-65
2021/03/18 07:46:33;;;;;;;4.53;2.63;;;;;;;9.07;54.40;96369.31;5055780;28;20085;-64
2021/03/18 07:49:21;;;;;;;2.30;2.10;;;;;;;7.65;54.33;96266.41;5047921;28;20049;-63
2021/03/18 07:52:11;;;;;;;2.75;2.40;;;;;;;9.24;53.23;96388.06;5044973;28;20098;-60
2021/03/18 07:54:56;;;;;;;6.90;3.85;;;;;;;9.08;53.73;96312.88;5044539;28;20060;-61
2021/03/18 07:57:43;;;;;;;3.72;3.13;;;;;;;9.72;51.98;96370.38;5044267;28;20133;-62
2021/03/18 08:00:31;;;;;;;11.00;5.00;;;;;;;9.73;50.35;96291.78;5052520;28;20548;-64
2021/03/18 08:03:21;;;;;;;3.55;2.80;;;;;;;10.75;48.97;96397.69;5055817;28;20056;-62
2021/03/18 08:06:05;;;;;;;3.88;2.78;;;;;;;10.84;48.05;96397.34;5046519;28;20521;-60
2021/03/18 08:08:49;;;;;;;2.88;2.58;;;;;;;10.22;47.18;96305.22;5056752;28;20121;-60
2021/03/18 08:11:33;;;;;;;;;;;;;;;11.16;47.96;96395.53;5061458;28;20542;-63
2021/03/18 08:14:22;;;;;;;;;;;;;;;11.83;47.14;96385.44;5057863;28;19963;-63
2021/03/18 08:17:26;;;;;;;3.17;2.67;;;;;;;11.15;45.63;96305.25;5055511;28;19926;-63
2021/03/18 08:20:11;;;;;;;3.57;2.77;;;;;;;12.03;44.60;96390.22;5055983;28;20059;-67
2021/03/18 08:22:55;;;;;;;3.22;2.92;;;;;;;11.89;44.61;96389.41;5067449;28;20424;-63
2021/03/18 08:25:40;;;;;;;;;;;;;;;11.91;45.30;96387.03;5052701;28;20043;-59
2021/03/18 08:28:45;;;;;;;3.97;3.13;;;;;;;11.61;46.54;96394.88;5059954;28;20433;-61
2021/03/18 08:31:32;;;;;;;3.47;3.17;;;;;;;11.13;46.26;96396.31;5046547;28;20495;-63
2021/03/18 08:34:19;;;;;;;3.75;3.42;;;;;;;10.41;47.44;96397.09;5047279;28;20097;-62
2021/03/18 08:37:03;;;;;;;8.95;3.33;;;;;;;10.41;46.22;96316.81;5055578;28;20515;-63
2021/03/18 08:39:50;;;;;;;2.67;2.42;;;;;;;11.43;45.09;96399.59;5047909;28;20679;-66
2021/03/18 08:42:39;;;;;;;2.60;2.40;;;;;;;11.34;44.84;96399.16;5043084;28;20060;-68
2021/03/18 08:45:23;;;;;;;3.10;2.75;;;;;;;11.51;44.60;96401.19;5048638;28;20506;-64
2021/03/18 08:48:10;;;;;;;3.30;2.80;;;;;;;11.18;45.37;96370.97;5056429;28;20493;-64
2021/03/18 08:50:57;;;;;;;3.55;2.58;;;;;;;10.49;46.44;96429.19;5060651;28;20097;-64
2021/03/18 08:53:44;;;;;;;3.15;2.85;;;;;;;10.50;46.01;96358.78;5062404;28;20128;-62
2021/03/18 08:56:44;;;;;;;3.95;3.20;;;;;;;11.13;46.69;96407.41;5052699;28;20569;-63
2021/03/18 08:59:28;;;;;;;6.40;3.00;;;;;;;11.49;45.43;96398.81;5046262;28;20114;-64
2021/03/18 09:02:15;;;;;;;5.13;3.80;;;;;;;11.26;44.43;96325.47;5062766;28;20052;-63
2021/03/18 09:05:04;;;;;;;8.93;5.88;;;;;;;11.59;45.82;96363.97;5058994;28;20083;-64
2021/03/18 09:07:58;;;;;;;5.80;4.10;;;;;;;11.74;44.90;96343.44;5053167;28;20040;-65
2021/03/18 09:10:42;;;;;;;7.28;4.03;;;;;;;11.99;44.58;96367.25;5043120;28;20062;-62
2021/03/18 09:13:26;;;;;;;7.90;5.93;;;;;;;12.46;43.45;96402.13;5046541;28;20048;-67
2021/03/18 09:16:18;;;;;;;3.20;2.90;;;;;;;11.66;44.29;96392.56;5054302;28;20039;-67
2021/03/18 09:19:02;;;;;;;4.20;3.47;;;;;;;11.84;44.30;96403.66;5045871;28;20048;-63
2021/03/18 09:21:47;;;;;;;2.72;2.53;;;;;;;11.03;43.92;96325.81;5049641;28;20039;-65
2021/03/18 09:24:39;;;;;;;3.90;3.38;;;;;;;8.54;44.33;95910.50;5048324;28;20080;-65
2021/03/18 09:27:23;;;;;;;8.70;5.90;;;;;;;11.26;45.41;96297.75;5063042;28;20070;-64
2021/03/18 09:30:26;;;;;;;8.50;3.22;;;;;;;11.55;45.63;96408.34;5050841;28;20100;-61
2021/03/18 09:33:25;;;;;;;8.32;6.28;;;;;;;11.23;48.28;96412.19;5050454;28;20110;-64
2021/03/18 09:36:19;;;;;;;4.40;4.00;;;;;;;10.78;49.52;96423.84;5046712;28;20094;-63
2021/03/18 09:39:09;;;;;;;7.10;5.63;;;;;;;10.65;50.49;96426.91;5047783;28;20212;-64
2021/03/18 09:41:56;;;;;;;9.02;6.28;;;;;;;10.50;51.30;96430.78;5048412;28;20071;-63
2021/03/18 09:44:40;;;;;;;10.90;7.13;;;;;;;10.06;52.56;96399.56;5065020;28;20067;-64
2021/03/18 09:47:24;;;;;;;12.23;7.45;;;;;;;10.01;54.28;96410.16;5056168;28;20423;-63
2021/03/18 09:50:08;;;;;;;10.60;5.22;;;;;;;10.04;54.12;96443.41;5051659;28;20063;-63
2021/03/18 09:53:12;;;;;;;9.02;5.32;;;;;;;8.92;53.05;96317.84;5065011;28;20042;-67
2021/03/18 09:56:02;;;;;;;4.43;3.65;;;;;;;9.45;55.21;96440.81;5058498;28;20549;-62
2021/03/18 09:58:47;;;;;;;4.95;3.47;;;;;;;9.37;56.89;96428.09;5046246;28;20047;-59
2021/03/18 10:01:31;;;;;;;5.35;3.63;;;;;;;9.16;58.10;96455.47;5049332;28;20110;-60
2021/03/18 10:04:18;;;;;;;6.10;3.72;;;;;;;9.02;58.47;96447.78;5045891;28;20094;-62
2021/03/18 10:07:02;;;;;;;5.68;3.40;;;;;;;9.11;60.29;96441.97;5045423;28;20047;-62
2021/03/18 10:09:46;;;;;;;5.13;3.55;;;;;;;8.26;63.63;96444.69;5047239;28;20063;-64
2021/03/18 10:12:31;;;;;;;5.35;3.72;;;;;;;8.38;61.38;96441.69;5056282;28;20130;-63
2021/03/18 10:15:17;;;;;;;5.57;3.70;;;;;;;8.72;60.38;96404.75;5043782;28;20044;-66
2021/03/18 10:18:02;;;;;;;5.53;3.83;;;;;;;8.79;59.12;96382.75;5045636;28;20400;-66
2021/03/18 10:20:46;;;;;;;4.25;3.35;;;;;;;9.60;57.39;96450.84;5057752;28;20108;-64
2021/03/18 10:23:31;;;;;;;5.75;3.95;;;;;;;9.17;58.23;96371.38;5049171;28;20513;-62
2021/03/18 10:26:26;;;;;;;3.97;3.58;;;;;;;8.84;57.96;96443.19;5045183;28;20075;-61
2021/03/18 10:29:12;;;;;;;5.82;3.25;;;;;;;9.29;55.79;96445.75;5045609;28;20095;-61
2021/03/18 10:32:09;;;;;;;5.40;3.60;;;;;;;9.51;54.82;96439.31;5043169;28;20047;-62
2021/03/18 10:34:55;;;;;;;5.38;4.45;;;;;;;9.98;53.49;96442.16;5044006;28;20418;-63
2021/03/18 10:37:42;;;;;;;4.50;3.72;;;;;;;9.23;51.54;96331.22;5045239;28;20094;-63
2021/03/18 10:40:29;;;;;;;7.43;4.78;;;;;;;9.68;54.26;96357.69;5043337;28;20079;-64
2021/03/18 10:43:19;;;;;;;6.13;4.18;;;;;;;9.91;51.95;96444.06;5039444;28;20083;-64
2021/03/18 10:46:09;;;;;;;5.00;4.00;;;;;;;8.72;54.13;96424.09;5047627;28;20044;-68
2021/03/18 10:48:54;;;;;;;6.45;5.00;;;;;;;8.91;55.90;96448.81;5050415;28;20416;-61
2021/03/18 10:51:45;;;;;;;5.78;5.15;;;;;;;9.30;54.30;96439.06;5047687;28;20473;-66
2021/03/18 10:54:32;;;;;;;6.25;4.68;;;;;;;9.90;53.53;96352.00;5052875;28;20048;-62
2021/03/18 10:57:17;;;;;;;5.57;4.63;;;;;;;10.23;51.36;96448.75;5051424;28;20522;-64
2021/03/18 11:00:03;;;;;;;;;;;;;;;9.98;52.36;96436.63;5051982;28;20043;-63
2021/03/18 11:03:17;;;;;;;4.88;3.95;;;;;;;9.13;51.56;96390.72;5061723;28;19940;-61
2021/03/18 11:06:22;;;;;;;5.55;4.25;;;;;;;10.42;51.43;96429.13;5051301;28;20098;-66
2021/03/18 11:09:11;;;;;;;16.48;7.25;;;;;;;11.17;48.94;96433.16;5063697;28;20149;-65
2021/03/18 11:11:58;;;;;;;4.47;3.72;;;;;;;10.56;46.74;96340.63;5057277;28;20469;-67
2021/03/18 11:14:56;;;;;;;5.80;4.55;;;;;;;10.39;48.35;96388.38;5045090;28;20043;-67
2021/03/18 11:17:40;;;;;;;6.70;5.25;;;;;;;10.79;48.68;96320.97;5044553;28;20118;-66
2021/03/18 11:20:24;;;;;;;6.05;5.22;;;;;;;11.53;47.03;96432.91;5044505;28;20186;-68
2021/03/18 11:23:09;;;;;;;13.30;8.35;;;;;;;11.43;47.01;96321.97;5044529;28;20135;-70
2021/03/18 11:25:56;;;;;;;6.85;5.63;;;;;;;11.86;46.21;96381.88;5043624;28;20522;-69
2021/03/18 11:28:58;;;;;;;8.55;6.78;;;;;;;12.42;46.11;96418.00;5043906;28;20055;-62
2021/03/18 11:31:52;;;;;;;11.27;7.82;;;;;;;12.50;45.92;96374.34;5042712;28;20435;-63
2021/03/18 11:34:40;;;;;;;7.18;5.80;;;;;;;12.39;48.16;96368.81;5045731;28;20552;-65
2021/03/18 11:37:25;;;;;;;4.30;3.60;;;;;;;12.36;47.54;96382.69;5046643;28;20052;-63
2021/03/18 11:40:10;;;;;;;16.33;10.18;;;;;;;10.54;47.48;96077.16;5043462;28;20109;-62
2021/03/18 11:42:54;;;;;;;8.38;5.75;;;;;;;11.67;48.06;96294.28;5043805;28;20117;-69
2021/03/18 11:45:40;;;;;;;7.78;5.43;;;;;;;12.31;49.19;96383.91;5043765;28;20039;-61
2021/03/18 11:48:24;;;;;;;9.05;4.70;;;;;;;12.30;48.86;96406.50;5043340;28;20140;-64
2021/03/18 11:51:08;;;;;;;10.02;6.50;;;;;;;12.25;49.91;96402.13;5042063;28;20052;-61
2021/03/18 11:53:53;;;;;;;;;;;;;;;12.34;49.39;96399.75;5075394;28;20051;-62
2021/03/18 11:56:39;;;;;;;10.18;7.60;;;;;;;11.88;49.47;96319.25;5050341;28;20416;-64
2021/03/18 11:59:27;;;;;;;32.78;29.52;;;;;;;12.52;48.82;96400.53;5051656;28;20098;-65
2021/03/18 12:02:11;;;;;;;15.18;10.50;;;;;;;11.60;48.18;96360.03;5048754;28;20521;-61
2021/03/18 12:04:56;;;;;;;11.65;8.77;;;;;;;11.93;48.27;96356.94;5047561;28;20059;-64
2021/03/18 12:07:43;;;;;;;53.50;32.55;;;;;;;12.19;48.91;96403.72;5059493;28;20055;-62
2021/03/18 12:10:29;;;;;;;13.55;9.82;;;;;;;12.02;48.25;96405.31;5051541;28;20416;-62
2021/03/18 12:13:13;;;;;;;10.38;6.95;;;;;;;11.68;49.50;96370.75;5047818;28;20066;-62
2021/03/18 12:15:57;;;;;;;10.85;5.70;;;;;;;11.50;48.92;96400.41;5044790;28;20416;-62
2021/03/18 12:18:40;;;;;;;;;;;;;;;11.56;51.31;96414.69;5049260;28;20047;-63
2021/03/18 12:21:25;;;;;;;12.95;8.05;;;;;;;11.08;51.54;96378.06;5050047;28;19927;-66
2021/03/18 12:24:09;;;;;;;4.63;3.53;;;;;;;11.19;52.32;96411.38;5057814;28;20589;-62
2021/03/18 12:26:53;;;;;;;13.02;8.40;;;;;;;11.17;52.38;96359.13;5056439;28;20102;-63
2021/03/18 12:29:37;;;;;;;8.88;6.75;;;;;;;10.64;51.92;96292.41;5044968;28;20132;-63
2021/03/18 12:32:22;;;;;;;11.48;7.20;;;;;;;11.20;52.42;96391.59;5048751;28;20121;-62
2021/03/18 12:35:07;;;;;;;14.70;9.40;;;;;;;9.94;53.33;96280.88;5045590;28;20036;-66
2021/03/18 12:37:52;;;;;;;18.05;11.45;;;;;;;11.05;53.06;96423.19;5059741;28;20127;-62
2021/03/18 12:40:37;;;;;;;37.20;22.10;;;;;;;10.18;52.94;96385.44;5053578;28;20105;-66
2021/03/18 12:43:21;;;;;;;13.57;11.10;;;;;;;9.65;53.31;96290.16;5055757;28;20055;-63
2021/03/18 12:46:05;;;;;;;10.35;7.30;;;;;;;9.32;53.76;96237.75;5057610;28;20043;-65
2021/03/18 12:48:50;;;;;;;21.48;12.57;;;;;;;10.38;55.20;96428.31;5054799;28;20079;-65
2021/03/18 12:51:37;;;;;;;27.13;15.90;;;;;;;8.31;54.28;96132.59;5053193;28;20110;-67
2021/03/18 12:54:21;;;;;;;8.85;6.97;;;;;;;9.00;56.08;96280.84;5063643;28;20411;-68
2021/03/18 12:57:05;;;;;;;11.88;9.18;;;;;;;6.54;56.59;95919.44;5061835;28;20501;-68
2021/03/18 12:59:49;;;;;;;12.27;7.72;;;;;;;9.67;59.70;96453.72;5054256;28;20048;-71
2021/03/18 13:02:33;;;;;;;23.92;13.35;;;;;;;9.50;61.04;96468.09;5062362;28;20043;-68
2021/03/18 13:05:19;;;;;;;7.47;5.05;;;;;;;9.28;63.50;96446.91;5049870;28;20534;-73
2021/03/18 13:08:04;;;;;;;21.30;12.07;;;;;;;9.01;64.13;96453.66;5046939;28;20186;-65